Time;durP1;ratioP1;P1;durP2;ratioP2;P2;SDS_P1;SDS_P2;PMS_P1;PMS_P2;Temp;Humidity;BMP_temperature;BMP_pressure;BME280_temperature;BME280_humidity;BME280_pressure;Samples;Min_cycle;Max_cycle;Signal;HPM_P1;HPM_P2
2021/12/31 00:01:30;;;;;;;9.98;3.90;;;;;;;11.57;100.00;101776.81;5070945;28;20035;-87
2021/12/31 00:03:56;;;;;;;7.40;3.70;;;;;;;11.57;100.00;101782.03;5072064;28;20388;-85
2021/12/31 00:06:21;;;;;;;6.13;3.75;;;;;;;11.53;100.00;101780.34;5072271;28;20384;-85
2021/12/31 00:08:46;;;;;;;10.32;3.90;;;;;;;11.55;100.00;101774.25;5071143;28;20032;-86
2021/12/31 00:11:11;;;;;;;6.35;3.22;;;;;;;11.58;100.00;101783.78;5071829;28;20082;-85
2021/12/31 00:13:37;;;;;;;11.07;3.78;;;;;;;11.55;100.00;101779.47;5074948;28;20100;-86
2021/12/31 00:16:02;;;;;;;8.15;3.70;;;;;;;11.56;100.00;101782.94;5071946;28;20025;-86
2021/12/31 00:18:27;;;;;;;6.78;3.35;;;;;;;11.56;100.00;101796.84;5071047;28;20051;-86
2021/12/31 00:20:55;;;;;;;10.80;3.42;;;;;;;11.53;100.00;101796.88;5071786;28;20473;-86
2021/12/31 00:23:24;;;;;;;9.05;3.40;;;;;;;11.54;100.00;101792.53;5071206;28;20039;-86
2021/12/31 00:25:50;;;;;;;9.07;3.40;;;;;;;11.54;100.00;101793.38;5072826;28;20082;-86
2021/12/31 00:28:15;;;;;;;7.43;3.20;;;;;;;11.56;100.00;101802.06;5079652;28;20028;-85
2021/12/31 00:30:41;;;;;;;9.50;3.13;;;;;;;11.57;100.00;101792.50;5095772;28;20028;-85
2021/12/31 00:33:08;;;;;;;6.07;3.17;;;;;;;11.56;100.00;101796.00;5095934;28;20512;-86
2021/12/31 00:35:35;;;;;;;6.05;3.20;;;;;;;11.54;100.00;101795.13;5095265;28;20031;-86
2021/12/31 00:38:00;;;;;;;7.15;3.00;;;;;;;11.55;100.00;101804.72;5096250;28;20048;-86
2021/12/31 00:40:27;;;;;;;10.20;3.55;;;;;;;11.54;100.00;101808.19;5095389;28;20117;-85
2021/12/31 00:42:52;;;;;;;5.05;2.97;;;;;;;11.49;100.00;101796.06;5092446;28;20103;-87
2021/12/31 00:45:20;;;;;;;7.97;3.35;;;;;;;11.54;100.00;101800.34;5096141;28;20112;-87
2021/12/31 00:47:47;;;;;;;7.18;3.25;;;;;;;11.56;100.00;101798.59;5093958;28;20162;-87
2021/12/31 00:50:13;;;;;;;8.65;3.10;;;;;;;11.58;100.00;101804.69;5095405;28;20028;-86
2021/12/31 00:52:39;;;;;;;8.95;3.35;;;;;;;11.49;100.00;101788.22;5095043;28;20511;-87
2021/12/31 00:55:08;;;;;;;10.90;3.60;;;;;;;11.59;100.00;101795.97;5096008;28;20107;-87
2021/12/31 00:57:33;;;;;;;8.48;3.45;;;;;;;11.59;100.00;101803.78;5089937;28;20029;-86
2021/12/31 00:59:59;;;;;;;6.55;3.15;;;;;;;11.58;100.00;101800.31;5075321;28;20040;-85
2021/12/31 01:02:27;;;;;;;6.30;3.17;;;;;;;11.56;100.00;101801.22;5075354;28;20432;-84
2021/12/31 01:04:53;;;;;;;8.00;3.88;;;;;;;11.57;100.00;101795.97;5075033;28;20482;-88
2021/12/31 01:07:18;;;;;;;9.70;3.80;;;;;;;11.60;100.00;101802.91;5074537;28;20029;-86
2021/12/31 01:09:43;;;;;;;6.55;3.20;;;;;;;11.59;100.00;101806.41;5074874;28;20029;-87
2021/12/31 01:12:11;;;;;;;6.97;2.85;;;;;;;11.61;100.00;101799.44;5075778;28;20894;-86
2021/12/31 01:14:52;;;;;;;8.68;2.83;;;;;;;11.64;100.00;101796.75;5095005;28;20553;-86
2021/12/31 01:17:22;;;;;;;8.80;2.92;;;;;;;11.64;100.00;101796.75;5095668;28;20039;-86
2021/12/31 01:19:48;;;;;;;6.93;3.08;;;;;;;11.61;100.00;101794.19;5094240;28;20040;-86
2021/12/31 01:22:25;;;;;;;7.50;3.05;;;;;;;11.65;100.00;101793.28;5095430;28;20027;-87
2021/12/31 01:24:51;;;;;;;6.00;3.40;;;;;;;11.62;100.00;101793.31;5094817;28;20450;-86
2021/12/31 01:27:16;;;;;;;6.10;2.80;;;;;;;11.56;100.00;101780.31;5093371;28;20020;-87
2021/12/31 01:29:42;;;;;;;7.28;3.15;;;;;;;11.59;100.00;101783.75;5094416;28;20380;-86
2021/12/31 01:32:08;;;;;;;6.78;2.88;;;;;;;11.65;100.00;101790.66;5094417;28;20032;-86
2021/12/31 01:34:33;;;;;;;10.35;2.85;;;;;;;11.69;100.00;101793.19;5094371;28;20468;-85
2021/12/31 01:36:59;;;;;;;6.95;2.75;;;;;;;11.70;100.00;101794.91;5094775;28;20022;-86
2021/12/31 01:39:28;;;;;;;6.95;2.67;;;;;;;11.73;100.00;101784.44;5093174;28;20142;-87
2021/12/31 01:41:57;;;;;;;5.55;3.03;;;;;;;11.81;100.00;101796.56;5089160;28;20024;-85
2021/12/31 01:44:23;;;;;;;5.38;2.53;;;;;;;11.87;100.00;101794.75;5077238;28;20029;-86
2021/12/31 01:46:58;;;;;;;9.25;2.63;;;;;;;11.89;100.00;101794.72;5073764;28;20017;-87
2021/12/31 01:49:27;;;;;;;6.78;2.90;;;;;;;11.92;100.00;101799.91;5074370;28;20027;-87
2021/12/31 01:51:53;;;;;;;4.97;2.47;;;;;;;11.95;100.00;101798.09;5074517;28;20099;-86
2021/12/31 01:54:18;;;;;;;4.95;2.30;;;;;;;11.94;100.00;101793.78;5076728;28;20169;-87
2021/12/31 01:56:45;;;;;;;9.20;2.72;;;;;;;11.93;100.00;101794.69;5094041;28;20056;-85
2021/12/31 01:59:10;;;;;;;4.97;2.40;;;;;;;12.00;100.00;101808.50;5094792;28;20124;-86
2021/12/31 02:01:36;;;;;;;5.40;2.75;;;;;;;12.02;100.00;101805.88;5093260;28;20052;-86
2021/12/31 02:04:01;;;;;;;8.73;3.20;;;;;;;12.00;100.00;101807.63;5094529;28;20024;-86
2021/12/31 02:06:27;;;;;;;6.90;2.55;;;;;;;12.07;100.00;101814.53;5093989;28;20020;-87
2021/12/31 02:08:52;;;;;;;5.63;2.40;;;;;;;12.04;100.00;101806.72;5089532;28;20706;-87
2021/12/31 02:11:18;;;;;;;6.93;2.50;;;;;;;12.08;100.00;101817.09;5073902;28;20040;-86
2021/12/31 02:13:43;;;;;;;4.25;2.50;;;;;;;12.10;100.00;101810.13;5073538;28;20396;-87
2021/12/31 02:16:09;;;;;;;7.65;3.00;;;;;;;12.08;100.00;101798.81;5073683;28;20369;-86
2021/12/31 02:18:35;;;;;;;8.65;2.75;;;;;;;12.12;100.00;101802.22;5073426;28;20049;-86
2021/12/31 02:21:02;;;;;;;7.93;2.60;;;;;;;12.06;100.00;101799.69;5073009;28;20476;-86
2021/12/31 02:23:37;;;;;;;7.13;2.50;;;;;;;12.11;100.00;101804.00;5074040;28;20461;-86
2021/12/31 02:26:03;;;;;;;9.60;3.00;;;;;;;12.10;100.00;101810.13;5094165;28;20368;-87
2021/12/31 02:28:28;;;;;;;4.88;2.35;;;;;;;12.09;100.00;101799.66;5092895;28;20032;-86
2021/12/31 02:30:56;;;;;;;7.18;2.78;;;;;;;12.09;100.00;101795.28;5094111;28;20020;-85
2021/12/31 02:33:21;;;;;;;5.55;2.30;;;;;;;12.10;100.00;101797.03;5093675;28;20032;-86
2021/12/31 02:35:47;;;;;;;6.18;2.45;;;;;;;12.06;100.00;101797.09;5092579;28;20078;-86
2021/12/31 02:38:12;;;;;;;5.30;2.22;;;;;;;12.07;100.00;101798.84;5092784;28;20376;-86
2021/12/31 02:40:37;;;;;;;6.20;2.40;;;;;;;12.04;100.00;101789.28;5093645;28;20375;-86
2021/12/31 02:43:03;;;;;;;6.82;3.17;;;;;;;12.04;100.00;101791.91;5092844;28;20070;-85
2021/12/31 02:45:32;;;;;;;7.20;2.45;;;;;;;12.04;100.00;101794.50;5092937;28;20066;-86
2021/12/31 02:48:00;;;;;;;7.20;2.50;;;;;;;12.04;100.00;101791.03;5093664;28;20029;-86
2021/12/31 02:50:30;;;;;;;8.68;3.20;;;;;;;12.02;100.00;101779.72;5092302;28;20099;-86
2021/12/31 02:52:56;;;;;;;9.20;3.13;;;;;;;12.02;100.00;101796.28;5092295;28;20077;-87
2021/12/31 02:55:22;;;;;;;8.13;2.88;;;;;;;12.02;100.00;101783.22;5115905;22;20032;-86
2021/12/31 02:57:47;;;;;;;10.00;2.85;;;;;;;11.95;100.00;101774.59;5051996;28;20098;-86
2021/12/31 03:00:13;;;;;;;5.00;2.83;;;;;;;12.02;100.00;101782.34;5053098;28;20064;-86
2021/12/31 03:02:41;;;;;;;7.20;2.80;;;;;;;11.94;100.00;101779.84;5052544;28;20079;-86
2021/12/31 03:05:08;;;;;;;4.63;2.70;;;;;;;11.95;100.00;101778.97;5052243;28;20452;-86
2021/12/31 03:07:35;;;;;;;6.60;2.40;;;;;;;11.94;100.00;101787.69;5051837;28;20031;-86
2021/12/31 03:10:02;;;;;;;8.02;3.05;;;;;;;11.93;100.00;101799.00;5052513;28;20036;-86
2021/12/31 03:12:27;;;;;;;7.57;2.83;;;;;;;11.89;100.00;101785.13;5052364;28;20033;-86
2021/12/31 03:14:54;;;;;;;8.05;3.15;;;;;;;11.93;100.00;101792.06;5051862;28;20033;-86
2021/12/31 03:17:20;;;;;;;7.05;2.85;;;;;;;11.91;100.00;101796.44;5052073;28;20025;-86
2021/12/31 03:19:45;;;;;;;8.68;2.70;;;;;;;11.89;100.00;101786.88;5052133;28;20036;-85
2021/12/31 03:22:11;;;;;;;9.50;2.80;;;;;;;11.84;100.00;101781.72;5052990;28;20032;-86
2021/12/31 03:24:36;;;;;;;7.97;3.28;;;;;;;11.83;100.00;101784.31;5051737;28;20033;-86
2021/12/31 03:27:02;;;;;;;6.63;2.80;;;;;;;11.75;100.00;101771.38;5052758;28;20029;-86
2021/12/31 03:29:27;;;;;;;6.45;3.15;;;;;;;11.79;100.00;101783.50;5051218;28;20036;-87
2021/12/31 03:31:53;;;;;;;8.57;2.95;;;;;;;11.79;100.00;101773.03;5051656;28;20048;-86
2021/12/31 03:34:19;;;;;;;12.82;2.90;;;;;;;11.75;100.00;101773.13;5052682;28;20028;-87
2021/12/31 03:36:44;;;;;;;6.53;3.15;;;;;;;11.81;100.00;101778.25;5052208;28;20377;-88
2021/12/31 03:39:10;;;;;;;5.60;2.70;;;;;;;11.82;100.00;101775.63;5051793;28;20043;-86
2021/12/31 03:41:36;;;;;;;6.63;2.80;;;;;;;11.84;100.00;101776.50;5052371;28;20079;-87
2021/12/31 03:44:02;;;;;;;7.50;2.85;;;;;;;11.80;100.00;101764.31;5052565;28;20028;-87
2021/12/31 03:46:27;;;;;;;8.20;3.70;;;;;;;11.72;100.00;101755.72;5050389;28;20029;-87
2021/12/31 03:48:53;;;;;;;8.60;3.10;;;;;;;11.70;100.00;101757.50;5052238;28;20027;-87
2021/12/31 03:51:18;;;;;;;8.15;3.05;;;;;;;11.67;100.00;101753.19;5052100;28;20037;-86
2021/12/31 03:53:43;;;;;;;3.95;2.83;;;;;;;11.65;100.00;101759.31;5076888;22;20080;-87
2021/12/31 03:56:09;;;;;;;8.90;2.70;;;;;;;11.65;100.00;101757.56;5092692;28;20050;-87
2021/12/31 03:58:34;;;;;;;8.65;3.05;;;;;;;11.61;100.00;101747.19;5092075;28;20016;-88
2021/12/31 04:00:59;;;;;;;6.18;3.60;;;;;;;11.67;100.00;101757.53;5091106;28;20144;-86
2021/12/31 04:03:25;;;;;;;10.30;2.90;;;;;;;11.67;100.00;101758.41;5091921;28;20060;-87
2021/12/31 04:05:50;;;;;;;8.88;3.00;;;;;;;11.70;100.00;101752.25;5092436;28;20035;-87
2021/12/31 04:08:16;;;;;;;10.10;3.53;;;;;;;11.77;100.00;101761.78;5090298;28;20020;-88
2021/12/31 04:10:43;;;;;;;8.77;3.97;;;;;;;11.80;100.00;101764.31;5092155;28;20349;-86
2021/12/31 04:13:08;;;;;;;8.38;2.95;;;;;;;11.78;100.00;101763.50;5092371;28;20035;-87
2021/12/31 04:15:34;;;;;;;6.68;3.53;;;;;;;11.77;100.00;101747.81;5091078;28;20028;-87
2021/12/31 04:17:59;;;;;;;8.13;3.25;;;;;;;11.87;100.00;101771.25;5092092;28;20054;-88
2021/12/31 04:20:34;;;;;;;6.57;2.97;;;;;;;11.88;100.00;101759.91;5090649;28;20031;-87
2021/12/31 04:23:03;;;;;;;13.52;3.80;;;;;;;11.90;100.00;101768.59;5091411;28;20031;-87
2021/12/31 04:25:29;;;;;;;8.68;3.65;;;;;;;11.89;100.00;101766.84;5091738;28;20026;-87
2021/12/31 04:27:54;;;;;;;7.90;3.35;;;;;;;11.85;100.00;101762.53;5091364;28;20107;-87
2021/12/31 04:30:20;;;;;;;13.13;3.38;;;;;;;11.90;100.00;101754.63;5092229;28;20028;-87
2021/12/31 04:32:45;;;;;;;8.90;3.40;;;;;;;11.88;100.00;101749.44;5078974;28;20033;-86
2021/12/31 04:35:11;;;;;;;6.15;3.60;;;;;;;11.89;100.00;101764.22;5071277;28;20472;-87
2021/12/31 04:37:39;;;;;;;7.68;3.80;;;;;;;11.91;100.00;101756.38;5071551;28;20025;-88
2021/12/31 04:40:07;;;;;;;5.90;3.20;;;;;;;11.93;100.00;101749.34;5071827;28;20396;-86
2021/12/31 04:42:32;;;;;;;9.77;3.72;;;;;;;11.90;100.00;101746.78;5070633;28;20480;-87
2021/12/31 04:44:57;;;;;;;9.40;4.13;;;;;;;11.90;100.00;101745.06;5072010;28;20024;-87
2021/12/31 04:47:23;;;;;;;7.32;3.58;;;;;;;11.91;100.00;101746.78;5071527;28;20055;-87
2021/12/31 04:49:48;;;;;;;6.38;3.20;;;;;;;11.93;100.00;101738.91;5071175;28;20465;-87
2021/12/31 04:52:13;;;;;;;8.88;3.70;;;;;;;11.91;100.00;101738.94;5071786;28;20444;-87
2021/12/31 04:54:39;;;;;;;9.90;3.75;;;;;;;11.90;100.00;101729.38;5070943;28;20044;-86
2021/12/31 04:57:04;;;;;;;11.50;3.75;;;;;;;11.91;100.00;101725.03;5078114;28;20032;-87
2021/12/31 04:59:29;;;;;;;6.68;3.95;;;;;;;11.87;100.00;101742.50;5091601;28;20024;-87
2021/12/31 05:01:55;;;;;;;8.27;3.55;;;;;;;11.83;100.00;101738.16;5091574;28;20028;-87
2021/12/31 05:04:20;;;;;;;6.20;3.63;;;;;;;11.82;100.00;101725.97;5091434;28;20376;-87
2021/12/31 05:06:48;;;;;;;9.93;3.92;;;;;;;11.81;99.69;101745.16;5091295;28;20503;-86
2021/12/31 05:09:14;;;;;;;8.13;3.40;;;;;;;11.81;99.92;101742.56;5091684;28;20035;-87
2021/12/31 05:11:39;;;;;;;9.55;3.53;;;;;;;11.79;100.00;101741.69;5088954;28;20111;-86
2021/12/31 05:14:05;;;;;;;9.32;3.75;;;;;;;11.74;100.00;101743.53;5076145;28;20032;-86
2021/12/31 05:16:30;;;;;;;7.72;3.08;;;;;;;11.74;100.00;101746.13;5094774;28;20050;-86
2021/12/31 05:18:55;;;;;;;10.77;3.67;;;;;;;11.70;100.00;101734.84;5095065;28;20024;-87
2021/12/31 05:21:21;;;;;;;6.93;3.33;;;;;;;11.66;100.00;101724.47;5095483;28;20052;-87
2021/12/31 05:23:46;;;;;;;8.88;3.33;;;;;;;11.73;99.87;101732.19;5094408;28;20079;-87
2021/12/31 05:26:11;;;;;;;8.32;3.05;;;;;;;11.68;99.72;101717.47;5094066;28;20028;-86
2021/12/31 05:28:36;;;;;;;10.13;3.55;;;;;;;11.67;99.67;101729.69;5094705;28;20578;-86
2021/12/31 05:31:02;;;;;;;8.95;3.22;;;;;;;11.65;99.62;101723.59;5094279;28;20480;-85
2021/12/31 05:33:27;;;;;;;8.20;3.20;;;;;;;11.63;99.37;101727.97;5094802;28;20040;-86
2021/12/31 05:35:56;;;;;;;7.70;3.50;;;;;;;11.63;99.04;101717.53;5086360;28;20035;-87
2021/12/31 05:38:21;;;;;;;5.93;3.00;;;;;;;11.56;99.24;101708.06;5074034;28;20099;-85
2021/12/31 05:40:46;;;;;;;7.13;2.67;;;;;;;11.48;99.44;101710.78;5074330;28;20112;-88
2021/12/31 05:43:12;;;;;;;7.35;3.33;;;;;;;11.42;99.70;101713.47;5074778;28;20464;-86
2021/12/31 05:45:37;;;;;;;5.57;3.08;;;;;;;11.34;99.96;101699.63;5073501;28;20025;-87
2021/12/31 05:48:03;;;;;;;5.97;2.97;;;;;;;11.28;100.00;101697.13;5074645;28;20028;-86
2021/12/31 05:50:28;;;;;;;6.93;3.13;;;;;;;11.22;100.00;101692.00;5073827;28;20361;-89
2021/12/31 05:52:59;;;;;;;8.43;3.80;;;;;;;11.17;100.00;101693.78;5073919;28;20102;-87
2021/12/31 05:55:25;;;;;;;7.28;3.10;;;;;;;11.11;100.00;101696.47;5074272;28;20025;-87
2021/12/31 05:57:51;;;;;;;7.07;3.53;;;;;;;11.07;100.00;101687.81;5074381;28;20029;-87
2021/12/31 06:00:16;;;;;;;9.00;3.22;;;;;;;11.01;100.00;101693.94;5073459;28;20031;-87
2021/12/31 06:02:42;;;;;;;6.78;3.65;;;;;;;10.96;100.00;101697.53;5073881;28;20028;-88
2021/12/31 06:05:08;;;;;;;5.18;3.10;;;;;;;10.93;100.00;101695.81;5079810;28;20474;-87
2021/12/31 06:07:33;;;;;;;8.43;3.33;;;;;;;10.93;100.00;101701.03;5093340;28;20032;-86
2021/12/31 06:09:59;;;;;;;7.28;3.55;;;;;;;10.87;100.00;101701.09;5094460;28;20073;-86
2021/12/31 06:12:25;;;;;;;6.00;3.10;;;;;;;10.87;100.00;101710.66;5093727;28;20038;-87
2021/12/31 06:14:53;;;;;;;8.98;3.38;;;;;;;10.85;100.00;101710.66;5092275;28;20110;-86
2021/12/31 06:17:24;;;;;;;6.78;3.22;;;;;;;10.78;100.00;101714.22;5094417;28;20028;-86
2021/12/31 06:19:49;;;;;;;6.47;3.20;;;;;;;10.72;100.00;101716.88;5094560;28;20024;-85
2021/12/31 06:22:15;;;;;;;6.28;3.10;;;;;;;10.70;100.00;101706.47;5093459;28;20035;-85
2021/12/31 06:24:41;;;;;;;10.52;3.38;;;;;;;10.68;100.00;101718.66;5093430;28;20020;-86
2021/12/31 06:27:07;;;;;;;6.30;3.50;;;;;;;10.63;100.00;101710.03;5093468;28;20028;-86
2021/12/31 06:29:32;;;;;;;10.07;3.78;;;;;;;10.57;100.00;101710.09;5091124;28;20024;-86
2021/12/31 06:31:57;;;;;;;7.47;3.50;;;;;;;10.63;100.00;101717.84;5093903;28;20032;-87
2021/12/31 06:34:22;;;;;;;10.35;3.40;;;;;;;10.61;100.00;101709.19;5093277;28;20052;-87
2021/12/31 06:36:48;;;;;;;8.80;3.58;;;;;;;10.58;100.00;101700.53;5093752;28;20081;-87
2021/12/31 06:39:13;;;;;;;8.65;3.80;;;;;;;10.57;100.00;101714.44;5093900;28;20035;-85
2021/12/31 06:41:38;;;;;;;9.63;3.85;;;;;;;10.52;100.00;101712.72;5092519;28;20436;-87
2021/12/31 06:44:04;;;;;;;5.85;3.15;;;;;;;10.50;100.00;101731.91;5092165;28;20035;-87
2021/12/31 06:46:29;;;;;;;11.30;3.83;;;;;;;10.45;100.00;101731.91;5093481;28;20028;-86
2021/12/31 06:48:54;;;;;;;6.35;3.45;;;;;;;10.35;100.00;101725.06;5093097;28;20387;-87
2021/12/31 06:51:20;;;;;;;10.30;3.63;;;;;;;10.35;100.00;101740.69;5093689;28;20430;-86
2021/12/31 06:53:45;;;;;;;4.75;3.20;;;;;;;10.25;100.00;101747.69;5093012;28;20044;-86
2021/12/31 06:56:11;;;;;;;4.82;3.10;;;;;;;10.20;100.00;101739.06;5092689;28;20114;-86
2021/12/31 06:58:37;;;;;;;8.65;3.95;;;;;;;10.21;100.00;101732.97;5088361;28;20098;-86
2021/12/31 07:01:03;;;;;;;8.15;4.32;;;;;;;10.12;100.00;101711.31;5076609;28;20032;-86
2021/12/31 07:03:28;;;;;;;7.65;3.80;;;;;;;10.08;100.00;101726.97;5071825;28;20036;-86
2021/12/31 07:05:53;;;;;;;6.72;3.47;;;;;;;10.09;100.00;101730.44;5073290;28;20024;-86
2021/12/31 07:08:18;;;;;;;7.72;3.53;;;;;;;10.00;100.00;101725.28;5072484;28;20079;-86
2021/12/31 07:10:44;;;;;;;6.95;3.40;;;;;;;10.03;100.00;101739.16;5071584;28;20024;-85
2021/12/31 07:13:12;;;;;;;9.10;4.00;;;;;;;10.05;100.00;101749.59;5072841;28;20028;-86
2021/12/31 07:15:48;;;;;;;6.93;4.05;;;;;;;10.02;100.00;101749.59;5072508;28;20032;-86
2021/12/31 07:18:14;;;;;;;7.55;3.47;;;;;;;10.00;100.00;101751.34;5071989;28;20025;-86
2021/12/31 07:20:39;;;;;;;5.80;3.47;;;;;;;9.93;100.00;101745.31;5072529;28;20052;-87
2021/12/31 07:23:10;;;;;;;5.60;3.70;;;;;;;9.93;100.00;101745.31;5072193;28;20064;-86
2021/12/31 07:25:38;;;;;;;9.00;4.00;;;;;;;9.94;100.00;101746.16;5071262;28;20476;-85
2021/12/31 07:28:04;;;;;;;6.57;3.70;;;;;;;9.90;100.00;101754.88;5072827;28;20024;-86
2021/12/31 07:30:29;;;;;;;5.95;3.53;;;;;;;9.88;100.00;101756.66;5071286;28;20024;-86
2021/12/31 07:32:55;;;;;;;9.60;3.97;;;;;;;9.89;100.00;101759.22;5072469;28;20024;-85
2021/12/31 07:35:20;;;;;;;6.43;3.67;;;;;;;9.87;100.00;101758.34;5071958;28;20020;-86
2021/12/31 07:37:45;;;;;;;6.90;3.58;;;;;;;9.82;100.00;101750.59;5079365;28;20024;-86
2021/12/31 07:40:12;;;;;;;6.25;3.47;;;;;;;9.81;100.00;101745.41;5092580;28;20028;-85
2021/12/31 07:42:39;;;;;;;7.90;3.65;;;;;;;9.86;100.00;101759.25;5092194;28;20036;-86
2021/12/31 07:45:05;;;;;;;6.25;3.40;;;;;;;9.90;100.00;101760.09;5091857;28;20077;-86
2021/12/31 07:47:31;;;;;;;8.07;3.65;;;;;;;9.85;100.00;101740.16;5092294;28;20073;-86
2021/12/31 07:49:56;;;;;;;8.23;3.95;;;;;;;9.90;100.00;101752.28;5092378;28;20054;-87
2021/12/31 07:52:22;;;;;;;8.05;3.60;;;;;;;9.91;100.00;101760.09;5089300;28;20071;-85
2021/12/31 07:54:47;;;;;;;5.05;3.42;;;;;;;9.94;100.00;101770.50;5088716;28;20048;-86
2021/12/31 07:57:13;;;;;;;6.35;3.30;;;;;;;9.95;100.00;101787.00;5092626;28;20071;-86
2021/12/31 07:59:38;;;;;;;9.00;4.32;;;;;;;9.95;100.00;101771.34;5090257;28;20106;-86
2021/12/31 08:02:03;;;;;;;6.05;3.55;;;;;;;9.91;100.00;101770.50;5073810;28;20036;-86
2021/12/31 08:04:29;;;;;;;8.38;3.60;;;;;;;9.92;100.00;101789.59;5072101;28;20062;-86
2021/12/31 08:06:54;;;;;;;5.57;3.53;;;;;;;9.91;100.00;101793.97;5071593;28;20074;-86
2021/12/31 08:09:19;;;;;;;5.28;3.55;;;;;;;9.92;100.00;101795.69;5081023;28;20550;-86
2021/12/31 08:11:44;;;;;;;6.72;3.90;;;;;;;9.90;100.00;101789.59;5091519;28;20024;-86
2021/12/31 08:14:10;;;;;;;5.68;3.55;;;;;;;9.89;100.00;101793.09;5089376;28;20051;-85
2021/12/31 08:16:35;;;;;;;9.25;3.47;;;;;;;9.87;100.00;101781.81;5091567;28;20054;-86
2021/12/31 08:19:00;;;;;;;6.68;3.38;;;;;;;9.90;100.00;101793.94;5092264;28;20492;-85
2021/12/31 08:21:26;;;;;;;6.80;3.50;;;;;;;9.88;100.00;101788.75;5091008;28;20503;-87
2021/12/31 08:23:51;;;;;;;5.63;3.90;;;;;;;9.98;100.00;101800.00;5092056;28;20069;-86
2021/12/31 08:26:16;;;;;;;5.55;3.60;;;;;;;10.05;100.00;101779.09;5092162;28;20027;-86
2021/12/31 08:28:42;;;;;;;7.00;3.42;;;;;;;10.09;100.00;101767.78;5088921;28;20395;-86
2021/12/31 08:31:07;;;;;;;5.70;3.70;;;;;;;10.16;100.00;101754.72;5092254;28;20016;-86
2021/12/31 08:33:32;;;;;;;9.85;3.40;;;;;;;10.21;100.00;101764.22;5091002;28;20032;-85
2021/12/31 08:35:58;;;;;;;5.43;2.95;;;;;;;10.26;100.00;101770.28;5091910;28;20615;-86
2021/12/31 08:38:24;;;;;;;4.45;3.30;;;;;;;10.24;100.00;101753.78;5091916;28;20540;-87
2021/12/31 08:40:50;;;;;;;7.25;3.60;;;;;;;10.36;100.00;101776.28;5091571;28;20029;-86
2021/12/31 08:43:15;;;;;;;4.45;2.75;;;;;;;10.35;100.00;101763.28;5090585;28;20030;-86
2021/12/31 08:45:40;;;;;;;6.57;3.28;;;;;;;10.41;100.00;101764.09;5091669;28;20229;-86
2021/12/31 08:48:06;;;;;;;6.53;3.35;;;;;;;10.49;100.00;101777.06;5094333;28;20028;-86
2021/12/31 08:50:32;;;;;;;10.32;3.50;;;;;;;10.58;99.96;101761.34;5095469;28;20031;-87
2021/12/31 08:52:57;;;;;;;5.68;3.08;;;;;;;10.63;100.00;101758.72;5095843;28;20056;-86
2021/12/31 08:55:24;;;;;;;4.70;3.10;;;;;;;10.68;99.13;101752.56;5094851;28;20035;-85
2021/12/31 08:57:50;;;;;;;7.82;2.85;;;;;;;10.72;98.81;101749.03;5091735;28;20032;-87
2021/12/31 09:00:15;;;;;;;4.68;2.83;;;;;;;10.77;99.04;101749.00;5075561;28;20025;-86
2021/12/31 09:02:42;;;;;;;5.05;2.90;;;;;;;10.81;98.50;101729.84;5074174;28;20051;-86
2021/12/31 09:05:08;;;;;;;4.72;2.80;;;;;;;10.86;98.11;101737.63;5075418;28;20103;-86
2021/12/31 09:07:33;;;;;;;4.45;2.97;;;;;;;10.86;97.91;101741.09;5083460;28;20644;-87
2021/12/31 09:09:59;;;;;;;4.47;2.72;;;;;;;10.84;97.74;101736.78;5074524;28;20037;-86
2021/12/31 09:12:24;;;;;;;5.88;2.70;;;;;;;10.81;97.11;101735.06;5075100;28;20040;-86
2021/12/31 09:14:50;;;;;;;3.88;2.78;;;;;;;10.82;97.55;101755.03;5075265;28;20020;-86
2021/12/31 09:17:15;;;;;;;4.32;2.88;;;;;;;10.76;97.75;101750.75;5074415;28;20109;-86
2021/12/31 09:19:41;;;;;;;3.80;2.65;;;;;;;10.83;97.57;101755.94;5074783;28;20031;-86
2021/12/31 09:22:06;;;;;;;4.65;2.78;;;;;;;10.85;97.55;101756.75;5092168;28;20124;-86
2021/12/31 09:24:31;;;;;;;5.28;2.70;;;;;;;10.90;97.33;101748.00;5091832;28;20032;-88
2021/12/31 09:26:56;;;;;;;4.72;2.55;;;;;;;10.90;96.75;101742.78;5095249;28;20093;-85
2021/12/31 09:29:23;;;;;;;4.75;2.70;;;;;;;11.01;96.99;101767.00;5095215;28;20071;-85
2021/12/31 09:31:52;;;;;;;5.18;2.83;;;;;;;11.06;96.25;101768.72;5094533;28;20107;-87
2021/12/31 09:34:18;;;;;;;7.03;2.78;;;;;;;10.98;96.15;101748.78;5094808;28;20532;-86
2021/12/31 09:36:43;;;;;;;4.93;2.75;;;;;;;11.06;96.65;101772.19;5094445;28;20044;-86
2021/12/31 09:39:09;;;;;;;7.45;3.00;;;;;;;11.09;95.77;101785.22;5086722;28;20028;-86
2021/12/31 09:41:35;;;;;;;6.07;2.53;;;;;;;11.10;95.71;101784.31;5074311;28;20534;-86
2021/12/31 09:44:01;;;;;;;8.60;2.40;;;;;;;11.11;95.73;101787.78;5074386;28;20107;-87
2021/12/31 09:46:26;;;;;;;5.15;2.50;;;;;;;11.12;95.25;101805.22;5074495;28;20024;-86
2021/12/31 09:48:52;;;;;;;7.40;2.58;;;;;;;11.17;95.14;101793.81;5074654;28;20035;-86
2021/12/31 09:51:17;;;;;;;6.88;2.70;;;;;;;11.25;94.51;101797.22;5073955;28;20060;-86
2021/12/31 09:53:43;;;;;;;5.45;2.58;;;;;;;11.26;94.40;101795.47;5077424;28;20555;-85
2021/12/31 09:56:08;;;;;;;4.97;2.42;;;;;;;11.31;94.38;101801.47;5093044;28;20148;-87
2021/12/31 09:58:35;;;;;;;7.38;2.30;;;;;;;11.35;93.61;101802.34;5093065;28;20044;-87
2021/12/31 10:01:02;;;;;;;6.97;2.50;;;;;;;11.39;93.11;101801.41;5092630;28;20028;-87
2021/12/31 10:03:30;;;;;;;3.40;2.40;;;;;;;11.38;93.11;101776.16;5094487;28;20380;-86
2021/12/31 10:06:06;;;;;;;5.97;2.38;;;;;;;11.38;93.49;101786.63;5093641;28;20474;-86
2021/12/31 10:08:42;;;;;;;6.00;2.40;;;;;;;11.34;92.82;101788.41;5094343;28;20032;-86
2021/12/31 10:11:07;;;;;;;5.63;2.42;;;;;;;11.35;92.64;101794.50;5094575;28;20024;-85
2021/12/31 10:13:35;;;;;;;4.83;2.30;;;;;;;11.31;93.61;101795.41;5090853;28;20492;-87
2021/12/31 10:16:00;;;;;;;4.55;2.60;;;;;;;11.29;93.16;101771.94;5094489;28;20327;-86
2021/12/31 10:18:37;;;;;;;6.10;2.95;;;;;;;11.29;93.53;101771.94;5093772;28;20102;-85
2021/12/31 10:21:04;;;;;;;6.47;3.00;;;;;;;11.28;93.85;101765.00;5093810;28;20024;-86
2021/12/31 10:23:30;;;;;;;8.88;2.97;;;;;;;11.27;94.12;101791.97;5093857;28;20028;-87
2021/12/31 10:26:17;;;;;;;4.90;2.80;;;;;;;11.28;93.88;101791.09;5094038;28;20024;-87
2021/12/31 10:28:53;;;;;;;6.22;2.30;;;;;;;11.29;94.00;101763.25;5085265;28;20111;-85
2021/12/31 10:31:19;;;;;;;3.88;2.50;;;;;;;11.29;93.53;101758.91;5073576;28;20094;-86
2021/12/31 10:33:46;;;;;;;5.07;2.60;;;;;;;11.35;93.56;101771.88;5072307;28;20395;-86
2021/12/31 10:36:38;;;;;;;5.82;2.40;;;;;;;11.34;94.02;101772.75;5074000;28;20051;-86
2021/12/31 10:39:20;;;;;;;6.03;2.70;;;;;;;11.34;94.25;101772.75;5073515;28;20385;-86
2021/12/31 10:41:50;;;;;;;7.57;2.63;;;;;;;11.37;92.97;101758.78;5072315;28;20028;-86
2021/12/31 10:44:15;;;;;;;7.00;2.70;;;;;;;11.41;92.95;101774.41;5086461;28;20035;-86
2021/12/31 10:46:41;;;;;;;7.43;3.08;;;;;;;11.51;93.92;101787.34;5093330;28;20379;-86
2021/12/31 10:49:10;;;;;;;5.78;3.10;;;;;;;11.62;92.44;101788.94;5092750;28;20021;-86
2021/12/31 10:51:46;;;;;;;4.95;3.10;;;;;;;11.76;92.13;101793.97;5093128;28;20066;-86
2021/12/31 10:54:29;;;;;;;5.22;3.10;;;;;;;11.88;92.38;101785.16;5092711;28;20391;-87
2021/12/31 10:56:56;;;;;;;5.45;2.70;;;;;;;11.89;91.16;101789.50;5093550;28;20551;-86
2021/12/31 10:59:22;;;;;;;6.50;3.17;;;;;;;11.84;91.28;101796.50;5092350;28;20081;-87
2021/12/31 11:01:48;;;;;;;4.25;3.00;;;;;;;11.78;91.87;101802.69;5092233;28;20487;-87
2021/12/31 11:04:14;;;;;;;7.15;2.80;;;;;;;11.67;92.09;101783.66;5093287;28;20020;-86
2021/12/31 11:06:41;;;;;;;5.13;2.97;;;;;;;11.55;92.78;101776.84;5092770;28;20032;-86
2021/12/31 11:09:07;;;;;;;6.10;3.00;;;;;;;11.52;92.53;101778.66;5092762;28;20048;-86
2021/12/31 11:11:34;;;;;;;4.50;3.25;;;;;;;11.40;93.28;101769.19;5091732;28;20016;-86
2021/12/31 11:14:02;;;;;;;5.65;2.90;;;;;;;11.35;93.10;101771.03;5076001;28;20035;-85
2021/12/31 11:16:27;;;;;;;7.10;3.05;;;;;;;11.43;93.58;101767.41;5071794;28;20025;-87